createdAt,value
2022-09-06T00:01:18.473Z,3.90
2022-09-06T00:03:47.008Z,3.80
2022-09-06T00:06:18.660Z,4.30
2022-09-06T00:08:49.332Z,3.60
2022-09-06T00:11:19.161Z,4.00
2022-09-06T00:13:48.671Z,3.90
2022-09-06T00:16:21.470Z,3.30
2022-09-06T00:18:54.031Z,3.30
2022-09-06T00:21:25.880Z,3.80
2022-09-06T00:23:55.259Z,3.60
2022-09-06T00:26:24.010Z,4.10
2022-09-06T00:28:53.070Z,3.80
2022-09-06T00:31:24.745Z,4.50
2022-09-06T00:33:54.203Z,4.20
2022-09-06T00:36:23.157Z,4.70
2022-09-06T00:38:51.778Z,5.20
2022-09-06T00:41:21.594Z,4.40
2022-09-06T00:46:23.249Z,4.40
2022-09-06T00:48:59.303Z,4.00
2022-09-06T00:51:29.829Z,4.30
2022-09-06T00:53:59.717Z,4.30
2022-09-06T00:56:29.381Z,4.10
2022-09-06T00:58:58.872Z,4.20
2022-09-06T01:01:28.571Z,4.40
2022-09-06T01:03:57.657Z,4.40
2022-09-06T01:06:35.141Z,4.30
2022-09-06T01:09:24.816Z,5.20
2022-09-06T01:12:14.615Z,4.70
2022-09-06T01:14:55.780Z,4.30
2022-09-06T01:17:56.933Z,4.80
2022-09-06T01:20:42.312Z,4.70
2022-09-06T01:23:48.818Z,5.10
2022-09-06T01:26:55.141Z,4.50
2022-09-06T01:29:37.427Z,5.10
2022-09-06T01:32:55.875Z,5.40
2022-09-06T01:35:58.282Z,4.90
2022-09-06T01:38:28.126Z,8.00
2022-09-06T01:40:57.124Z,9.60
2022-09-06T01:43:35.895Z,10.60
2022-09-06T01:46:20.572Z,11.30
2022-09-06T01:48:57.981Z,12.30
2022-09-06T01:51:41.082Z,11.90
2022-09-06T01:54:34.912Z,12.70
2022-09-06T01:57:28.195Z,14.20
2022-09-06T02:00:11.777Z,14.00
2022-09-06T02:03:06.686Z,15.20
2022-09-06T02:05:52.488Z,15.40
2022-09-06T02:08:26.986Z,14.90
2022-09-06T02:11:00.089Z,13.70
2022-09-06T02:13:43.127Z,16.30
2022-09-06T02:16:18.403Z,16.60
2022-09-06T02:19:27.067Z,16.70
2022-09-06T02:21:58.370Z,17.80
2022-09-06T02:24:31.960Z,16.10
2022-09-06T02:27:01.406Z,18.10
2022-09-06T02:29:30.887Z,18.70
2022-09-06T02:32:19.645Z,17.50
2022-09-06T02:34:50.661Z,19.60
2022-09-06T02:37:19.854Z,19.70
2022-09-06T02:39:48.550Z,19.20
2022-09-06T02:42:18.034Z,18.40
2022-09-06T02:44:46.679Z,17.90
2022-09-06T02:47:16.148Z,19.30
2022-09-06T02:49:45.346Z,20.20
2022-09-06T02:52:14.040Z,19.90
2022-09-06T02:54:42.899Z,19.40
2022-09-06T02:57:15.046Z,19.30
2022-09-06T02:59:44.031Z,19.70
2022-09-06T03:02:13.449Z,19.10
2022-09-06T03:04:42.087Z,17.80
2022-09-06T03:07:10.729Z,18.40
2022-09-06T03:09:39.821Z,19.30
2022-09-06T03:12:08.761Z,19.00
2022-09-06T03:14:41.645Z,18.00
2022-09-06T03:17:17.144Z,18.20
2022-09-06T03:19:46.863Z,18.30
2022-09-06T03:22:15.735Z,18.30
2022-09-06T03:24:45.848Z,18.70
2022-09-06T03:27:14.850Z,19.70
2022-09-06T03:29:43.588Z,18.40
2022-09-06T03:32:12.530Z,17.70
2022-09-06T03:34:41.408Z,15.50
2022-09-06T03:37:10.807Z,13.30
2022-09-06T03:39:39.873Z,13.20
2022-09-06T03:42:10.738Z,13.10
2022-09-06T03:44:39.942Z,13.80
2022-09-06T03:47:08.855Z,12.00
2022-09-06T03:49:37.424Z,11.60
2022-09-06T03:52:06.839Z,12.00
2022-09-06T03:54:35.719Z,11.30
2022-09-06T03:57:04.534Z,11.10
2022-09-06T03:59:33.683Z,10.80
2022-09-06T04:02:02.736Z,10.20
2022-09-06T04:04:31.330Z,9.00
2022-09-06T04:07:00.338Z,10.70
2022-09-06T04:09:29.599Z,11.10
2022-09-06T04:11:58.199Z,9.70
2022-09-06T04:14:27.469Z,9.90
2022-09-06T04:16:56.396Z,10.20
2022-09-06T04:19:25.023Z,11.30
2022-09-06T04:21:53.920Z,9.50
2022-09-06T04:24:23.253Z,9.50
2022-09-06T04:26:51.876Z,9.80
2022-09-06T04:29:20.555Z,9.40
2022-09-06T04:31:49.925Z,9.90
2022-09-06T04:34:20.119Z,10.30
2022-09-06T04:36:48.996Z,9.70
2022-09-06T04:39:18.441Z,9.40
2022-09-06T04:41:47.101Z,9.80
2022-09-06T04:44:16.044Z,9.40
2022-09-06T04:46:45.159Z,8.30
2022-09-06T04:49:13.701Z,7.80
2022-09-06T04:51:42.451Z,8.70
2022-09-06T04:54:11.689Z,9.10
2022-09-06T04:56:40.822Z,9.10
2022-09-06T04:59:09.608Z,8.60
2022-09-06T05:01:38.319Z,9.00
2022-09-06T05:04:07.239Z,8.60
2022-09-06T05:06:36.291Z,11.30
2022-09-06T05:09:05.014Z,9.80
2022-09-06T05:11:34.117Z,47.10
2022-09-06T05:14:03.525Z,8.80
2022-09-06T05:16:32.522Z,8.50
2022-09-06T05:19:01.136Z,8.40
2022-09-06T05:21:30.320Z,7.40
2022-09-06T05:23:59.219Z,8.00
2022-09-06T05:26:27.996Z,8.60
2022-09-06T05:28:57.388Z,11.60
2022-09-06T05:31:29.424Z,8.30
2022-09-06T05:33:58.714Z,17.80
2022-09-06T05:36:29.278Z,8.00
2022-09-06T05:38:59.125Z,7.50
2022-09-06T05:41:28.408Z,8.20
2022-09-06T05:43:57.010Z,8.50
2022-09-06T05:46:27.502Z,8.10
2022-09-06T05:49:01.440Z,8.20
2022-09-06T05:51:30.238Z,8.30
2022-09-06T05:53:59.580Z,7.90
2022-09-06T05:56:28.207Z,9.20
2022-09-06T05:58:56.994Z,8.90
2022-09-06T06:01:28.515Z,8.00
2022-09-06T06:04:04.230Z,8.30
2022-09-06T06:06:34.996Z,7.50
2022-09-06T06:09:04.214Z,7.60
2022-09-06T06:11:33.059Z,6.50
2022-09-06T06:14:03.808Z,7.00
2022-09-06T06:16:33.219Z,7.60
2022-09-06T06:19:03.071Z,6.30
2022-09-06T06:21:39.882Z,6.00
2022-09-06T06:24:09.024Z,6.50
2022-09-06T06:26:38.351Z,7.10
2022-09-06T06:29:09.996Z,6.40
2022-09-06T06:31:39.659Z,7.40
2022-09-06T06:34:09.467Z,6.20
2022-09-06T06:36:40.384Z,5.90
2022-09-06T06:39:09.429Z,6.20
2022-09-06T06:41:38.111Z,5.70
2022-09-06T06:44:19.199Z,6.50
2022-09-06T06:46:47.891Z,8.70
2022-09-06T06:49:16.485Z,8.90
2022-09-06T06:51:45.523Z,34.50
2022-09-06T06:54:15.358Z,35.90
2022-09-06T06:56:45.941Z,17.30
2022-09-06T06:59:14.951Z,10.60
2022-09-06T07:01:43.988Z,6.10
2022-09-06T07:04:14.644Z,7.10
2022-09-06T07:12:32.940Z,8.30
2022-09-06T07:15:01.533Z,7.60
2022-09-06T07:17:30.216Z,7.50
2022-09-06T07:20:15.259Z,8.30
2022-09-06T07:22:44.465Z,7.10
2022-09-06T07:25:20.395Z,8.20
2022-09-06T07:27:59.046Z,6.60
2022-09-06T07:30:31.137Z,6.50
2022-09-06T07:33:01.263Z,6.20
2022-09-06T07:38:00.723Z,6.40
2022-09-06T07:40:31.767Z,5.50
2022-09-06T07:43:00.859Z,10.20
2022-09-06T07:45:29.525Z,16.60
2022-09-06T07:48:00.294Z,9.80
2022-09-06T07:50:47.984Z,7.00
2022-09-06T07:53:24.669Z,8.00
2022-09-06T07:56:19.621Z,5.00
2022-09-06T07:59:08.306Z,5.40
2022-09-06T08:01:49.489Z,4.90
2022-09-06T08:04:20.574Z,5.40
2022-09-06T08:09:41.356Z,7.00
2022-09-06T08:12:12.359Z,5.90
2022-09-06T08:14:41.022Z,5.60
2022-09-06T08:17:10.553Z,7.20
2022-09-06T08:19:39.730Z,6.70
2022-09-06T08:22:08.973Z,6.50
2022-09-06T08:24:37.894Z,5.10
2022-09-06T08:27:10.042Z,5.20
2022-09-06T08:29:40.361Z,6.40
2022-09-06T08:32:09.261Z,6.60
2022-09-06T08:34:38.155Z,5.60
2022-09-06T08:37:07.205Z,7.60
2022-09-06T08:39:36.557Z,6.90
2022-09-06T08:42:07.621Z,6.00
2022-09-06T08:47:27.504Z,7.40
2022-09-06T08:50:01.470Z,7.50
2022-09-06T08:52:41.825Z,11.80
2022-09-06T08:55:25.708Z,6.90
2022-09-06T08:58:18.874Z,6.30
2022-09-06T09:00:53.250Z,7.00
2022-09-06T09:03:39.225Z,8.10
2022-09-06T09:06:10.696Z,8.00
2022-09-06T09:08:44.701Z,8.40
2022-09-06T09:11:19.497Z,5.90
2022-09-06T09:13:56.737Z,7.10
2022-09-06T09:16:26.678Z,6.00
2022-09-06T09:21:34.826Z,6.30
2022-09-06T09:24:13.145Z,6.20
2022-09-06T09:26:54.970Z,6.10
2022-09-06T09:29:27.965Z,5.60
2022-09-06T09:31:57.764Z,5.70
2022-09-06T09:34:40.053Z,5.70
2022-09-06T09:40:26.321Z,5.70
2022-09-06T09:43:10.248Z,6.70
2022-09-06T09:45:40.788Z,5.80
2022-09-06T09:48:28.511Z,6.80
2022-09-06T09:51:23.878Z,5.40
2022-09-06T09:53:59.274Z,5.40
2022-09-06T09:56:39.191Z,19.10
2022-09-06T09:59:31.315Z,5.30
2022-09-06T10:02:02.880Z,5.60
2022-09-06T10:07:14.228Z,5.90
2022-09-06T10:09:58.169Z,5.80
2022-09-06T10:12:34.343Z,4.90
2022-09-06T10:15:07.101Z,4.90
2022-09-06T10:17:43.590Z,5.50
2022-09-06T10:20:15.867Z,5.80
2022-09-06T10:23:09.400Z,5.70
2022-09-06T10:25:53.730Z,6.00
2022-09-06T10:28:39.351Z,5.90
2022-09-06T10:31:13.445Z,6.30
2022-09-06T10:34:04.325Z,4.30
2022-09-06T10:36:38.988Z,5.40
2022-09-06T10:39:33.636Z,6.50
2022-09-06T10:42:12.045Z,5.30
2022-09-06T10:45:03.833Z,4.50
2022-09-06T10:47:47.454Z,4.20
2022-09-06T10:50:17.481Z,5.00
2022-09-06T10:52:49.375Z,4.30
2022-09-06T10:55:19.968Z,4.10
2022-09-06T10:58:17.884Z,4.60
2022-09-06T11:00:53.704Z,4.40
2022-09-06T11:03:55.665Z,4.40
2022-09-06T11:06:42.707Z,5.60
2022-09-06T11:09:31.937Z,4.50
2022-09-06T11:12:16.466Z,4.40
2022-09-06T11:14:46.679Z,5.30
2022-09-06T11:17:35.044Z,4.50
2022-09-06T11:20:07.297Z,5.60
2022-09-06T11:22:39.033Z,4.90
2022-09-06T11:25:27.662Z,5.50
2022-09-06T11:27:59.873Z,4.80
2022-09-06T11:30:30.617Z,4.50
2022-09-06T11:33:30.119Z,9.90
2022-09-06T11:36:39.274Z,4.80
2022-09-06T11:39:10.167Z,5.10
2022-09-06T11:41:41.673Z,4.60
2022-09-06T11:44:11.318Z,4.50
2022-09-06T11:46:43.255Z,4.40
2022-09-06T11:49:15.465Z,4.00
2022-09-06T11:51:45.647Z,4.40
2022-09-06T11:54:23.355Z,4.70
2022-09-06T11:57:15.337Z,4.80
2022-09-06T12:00:02.115Z,4.60
2022-09-06T12:02:41.863Z,4.10
2022-09-06T12:05:12.276Z,4.40
2022-09-06T12:08:23.267Z,4.50
2022-09-06T12:11:03.666Z,4.40
2022-09-06T12:13:41.198Z,7.60
2022-09-06T12:16:14.797Z,5.50
2022-09-06T12:18:43.491Z,4.20
2022-09-06T12:21:32.225Z,4.80
2022-09-06T12:24:02.417Z,4.90
2022-09-06T12:26:56.121Z,4.50
2022-09-06T12:29:27.286Z,4.80
2022-09-06T12:31:58.254Z,3.90
2022-09-06T12:34:36.092Z,4.70
2022-09-06T12:39:38.477Z,4.10
2022-09-06T12:42:18.944Z,4.50
2022-09-06T12:44:55.502Z,4.10
2022-09-06T12:47:36.176Z,4.10
2022-09-06T12:50:17.556Z,4.20
2022-09-06T12:52:56.961Z,4.10
2022-09-06T12:55:35.095Z,4.20
2022-09-06T12:58:08.574Z,4.30
2022-09-06T13:00:45.427Z,3.90
2022-09-06T13:03:35.873Z,4.40
2022-09-06T13:06:06.960Z,4.00
2022-09-06T13:08:48.487Z,4.40
2022-09-06T13:11:23.956Z,4.30
2022-09-06T13:13:55.303Z,4.70
2022-09-06T13:16:35.611Z,4.40
2022-09-06T13:19:14.067Z,6.20
2022-09-06T13:21:45.326Z,4.80
2022-09-06T13:24:26.375Z,4.30
2022-09-06T13:26:55.376Z,4.40
2022-09-06T13:29:31.097Z,3.90
2022-09-06T13:32:02.816Z,4.10
2022-09-06T13:34:34.567Z,4.30
2022-09-06T13:37:10.671Z,4.30
2022-09-06T13:39:46.897Z,4.00
2022-09-06T13:42:38.603Z,4.40
2022-09-06T13:45:37.076Z,6.20
2022-09-06T13:48:26.149Z,4.80
2022-09-06T13:50:56.430Z,4.40
2022-09-06T13:53:25.664Z,4.50
2022-09-06T13:55:54.485Z,3.90
2022-09-06T13:58:24.901Z,3.30
2022-09-06T14:00:55.027Z,4.10
2022-09-06T14:03:42.859Z,4.10
2022-09-06T14:06:11.737Z,4.20
2022-09-06T14:09:09.710Z,3.80
2022-09-06T14:11:29.507Z,4.50
2022-09-06T14:13:58.484Z,4.20
2022-09-06T14:16:27.900Z,4.10
2022-09-06T14:18:57.078Z,4.50
2022-09-06T14:21:26.185Z,4.20
2022-09-06T14:23:54.925Z,4.30
2022-09-06T14:26:23.755Z,5.10
2022-09-06T14:28:52.718Z,4.80
2022-09-06T14:31:26.585Z,4.00
2022-09-06T14:33:57.221Z,4.30
2022-09-06T14:38:58.985Z,5.50
2022-09-06T14:41:28.448Z,5.70
2022-09-06T14:43:59.435Z,4.30
2022-09-06T14:46:29.248Z,5.60
2022-09-06T14:51:40.207Z,3.70
2022-09-06T14:54:11.863Z,4.50
2022-09-06T14:56:42.443Z,5.00
2022-09-06T14:59:12.574Z,6.10
2022-09-06T15:01:41.899Z,5.70
2022-09-06T15:04:12.364Z,7.90
2022-09-06T15:06:45.630Z,5.30
2022-09-06T15:09:17.806Z,3.80
2022-09-06T15:11:52.584Z,4.30
2022-09-06T15:14:24.278Z,4.80
2022-09-06T15:16:57.442Z,4.00
2022-09-06T15:19:28.635Z,4.10
2022-09-06T15:21:58.657Z,3.90
2022-09-06T15:24:28.925Z,4.20
2022-09-06T15:29:28.561Z,5.80
2022-09-06T15:31:57.735Z,3.90
2022-09-06T15:34:27.284Z,3.70
2022-09-06T15:36:57.476Z,3.70
2022-09-06T15:39:26.033Z,7.30
2022-09-06T15:41:54.831Z,3.60
2022-09-06T15:44:23.649Z,4.20
2022-09-06T15:46:54.340Z,4.00
2022-09-06T15:49:28.910Z,3.70
2022-09-06T15:52:01.123Z,4.20
2022-09-06T15:54:49.395Z,5.20
2022-09-06T15:57:18.669Z,4.90
2022-09-06T15:59:47.674Z,4.90
2022-09-06T16:02:16.506Z,4.40
2022-09-06T16:04:46.718Z,4.80
2022-09-06T16:09:44.330Z,5.20
2022-09-06T16:12:13.593Z,5.40
2022-09-06T16:14:42.363Z,5.40
2022-09-06T16:17:13.243Z,5.20
2022-09-06T16:19:42.019Z,5.70
2022-09-06T16:22:10.721Z,5.10
2022-09-06T16:24:39.952Z,4.70
2022-09-06T16:27:09.270Z,7.20
2022-09-06T16:29:38.679Z,4.80
2022-09-06T16:32:08.153Z,4.40
2022-09-06T16:34:40.980Z,4.40
2022-09-06T16:37:10.255Z,4.80
2022-09-06T16:39:39.430Z,4.30
2022-09-06T16:42:08.695Z,4.50
2022-09-06T16:44:38.610Z,4.90
2022-09-06T16:49:36.389Z,6.00
2022-09-06T16:52:05.018Z,4.90
2022-09-06T16:54:34.168Z,5.20
2022-09-06T16:57:03.082Z,5.30
2022-09-06T16:59:31.576Z,5.00
2022-09-06T17:02:13.905Z,4.50
2022-09-06T17:05:05.039Z,5.90
2022-09-06T17:07:55.934Z,4.80
2022-09-06T17:10:45.430Z,5.20
2022-09-06T17:13:35.296Z,5.20
2022-09-06T17:16:39.500Z,5.20
2022-09-06T17:19:30.222Z,5.50
2022-09-06T17:22:21.576Z,5.80
2022-09-06T17:25:19.721Z,6.40
2022-09-06T17:28:09.644Z,6.60
2022-09-06T17:31:00.927Z,6.10
2022-09-06T17:33:57.761Z,6.40
2022-09-06T17:36:57.721Z,7.10
2022-09-06T17:39:37.843Z,5.80
2022-09-06T17:42:27.540Z,7.00
2022-09-06T17:44:56.163Z,7.10
2022-09-06T17:47:25.372Z,7.00
2022-09-06T17:49:54.359Z,6.50
2022-09-06T17:52:23.112Z,5.50
2022-09-06T17:54:52.403Z,6.60
2022-09-06T17:57:21.687Z,6.70
2022-09-06T17:59:50.354Z,6.90
2022-09-06T18:02:19.297Z,6.80
2022-09-06T18:04:48.571Z,6.20
2022-09-06T18:07:17.841Z,6.30
2022-09-06T18:09:47.033Z,6.50
2022-09-06T18:12:16.218Z,8.70
2022-09-06T18:14:44.760Z,6.40
2022-09-06T18:17:13.400Z,6.70
2022-09-06T18:19:42.752Z,5.70
2022-09-06T18:22:12.656Z,4.90
2022-09-06T18:24:41.208Z,5.70
2022-09-06T18:27:10.492Z,5.20
2022-09-06T18:29:39.552Z,6.00
2022-09-06T18:32:08.406Z,5.30
2022-09-06T18:34:38.349Z,5.90
2022-09-06T18:37:06.993Z,5.60
2022-09-06T18:39:35.617Z,5.80
2022-09-06T18:42:10.902Z,5.40
2022-09-06T18:44:39.859Z,5.70
2022-09-06T18:47:09.828Z,6.20
2022-09-06T18:49:43.807Z,6.10
2022-09-06T18:52:14.072Z,6.00
2022-09-06T18:54:45.341Z,5.90
2022-09-06T18:57:16.293Z,6.10
2022-09-06T18:59:44.888Z,6.80
2022-09-06T19:02:13.928Z,6.80
2022-09-06T19:04:43.852Z,7.20
2022-09-06T19:07:12.783Z,6.80
2022-09-06T19:09:42.330Z,6.20
2022-09-06T19:12:12.332Z,10.50
2022-09-06T19:14:41.202Z,6.50
2022-09-06T19:17:10.095Z,6.50
2022-09-06T19:19:39.045Z,5.40
2022-09-06T19:22:10.030Z,5.60
2022-09-06T19:24:40.283Z,5.50
2022-09-06T19:27:10.892Z,6.30
2022-09-06T19:32:08.977Z,7.40
2022-09-06T19:34:38.434Z,7.60
2022-09-06T19:37:07.628Z,6.70
2022-09-06T19:39:37.437Z,5.80
2022-09-06T19:42:07.851Z,5.70
2022-09-06T19:44:36.317Z,6.60
2022-09-06T19:47:05.895Z,6.20
2022-09-06T19:52:10.151Z,7.50
2022-09-06T19:54:39.801Z,7.00
2022-09-06T19:57:08.534Z,7.50
2022-09-06T19:59:37.545Z,6.70
2022-09-06T20:02:06.955Z,5.70
2022-09-06T20:04:35.712Z,6.00
2022-09-06T20:07:04.383Z,6.80
2022-09-06T20:09:33.486Z,5.10
2022-09-06T20:12:03.157Z,5.00
2022-09-06T20:14:32.830Z,5.00
2022-09-06T20:17:22.679Z,4.80
2022-09-06T20:19:52.156Z,4.70
2022-09-06T20:22:22.256Z,5.20
2022-09-06T20:24:54.047Z,5.10
2022-09-06T20:27:23.261Z,4.60
2022-09-06T20:29:52.379Z,4.40
2022-09-06T20:32:21.300Z,4.50
2022-09-06T20:34:50.725Z,4.60
2022-09-06T20:37:21.416Z,5.80
2022-09-06T20:39:50.459Z,5.60
2022-09-06T20:42:19.821Z,4.90
2022-09-06T20:44:48.627Z,5.20
2022-09-06T20:47:17.547Z,4.40
2022-09-06T20:49:46.492Z,4.50
2022-09-06T20:52:15.287Z,5.50
2022-09-06T20:54:44.377Z,4.50
2022-09-06T20:57:13.390Z,4.50
2022-09-06T20:59:42.234Z,4.30
2022-09-06T21:02:11.105Z,4.90
2022-09-06T21:04:40.004Z,4.30
2022-09-06T21:07:09.363Z,4.90
2022-09-06T21:09:38.091Z,4.10
2022-09-06T21:12:06.953Z,3.90
2022-09-06T21:14:35.960Z,3.90
2022-09-06T21:17:04.918Z,4.50
2022-09-06T21:19:36.786Z,5.60
2022-09-06T21:22:06.136Z,4.10
2022-09-06T21:24:35.274Z,4.00
2022-09-06T21:27:04.207Z,4.30
2022-09-06T21:29:33.588Z,4.30
2022-09-06T21:32:03.089Z,4.90
2022-09-06T21:34:31.716Z,4.30
2022-09-06T21:37:00.296Z,4.60
2022-09-06T21:39:29.790Z,4.80
2022-09-06T21:41:58.272Z,4.70
2022-09-06T21:44:27.137Z,4.90
2022-09-06T21:46:57.081Z,5.30
2022-09-06T21:49:25.944Z,5.60
2022-09-06T21:51:54.580Z,4.90
2022-09-06T21:54:24.107Z,5.50
2022-09-06T21:56:52.652Z,5.20
2022-09-06T21:59:21.334Z,5.40
2022-09-06T22:01:53.093Z,5.40
2022-09-06T22:04:21.941Z,5.60
2022-09-06T22:06:51.256Z,5.40
2022-09-06T22:09:20.123Z,4.40
2022-09-06T22:11:48.929Z,5.30
2022-09-06T22:14:17.736Z,5.00
2022-09-06T22:16:46.894Z,4.20
2022-09-06T22:19:15.824Z,4.60
2022-09-06T22:21:44.501Z,5.10
2022-09-06T22:24:15.990Z,5.00
2022-09-06T22:26:46.178Z,5.30
2022-09-06T22:31:44.718Z,4.70
2022-09-06T22:34:13.867Z,5.40
2022-09-06T22:36:42.787Z,5.00
2022-09-06T22:39:11.404Z,5.20
2022-09-06T22:41:40.313Z,4.60
2022-09-06T22:44:09.500Z,4.60
2022-09-06T22:46:38.639Z,5.10
2022-09-06T22:49:07.708Z,5.20
2022-09-06T22:51:36.524Z,4.90
2022-09-06T22:54:06.201Z,4.80
2022-09-06T22:56:36.362Z,5.10
2022-09-06T22:59:06.209Z,5.00
2022-09-06T23:01:39.978Z,5.30
2022-09-06T23:04:10.096Z,5.00
2022-09-06T23:06:38.693Z,4.20
2022-09-06T23:09:07.833Z,5.20
2022-09-06T23:11:36.905Z,4.70
2022-09-06T23:14:06.013Z,4.80
2022-09-06T23:16:35.527Z,4.50
2022-09-06T23:19:05.597Z,4.40
2022-09-06T23:21:34.158Z,5.20
2022-09-06T23:24:03.273Z,4.80
2022-09-06T23:26:33.000Z,5.60
2022-09-06T23:29:01.679Z,5.10
2022-09-06T23:31:34.716Z,5.30
2022-09-06T23:34:03.892Z,5.30
2022-09-06T23:36:32.981Z,4.90
2022-09-06T23:39:02.984Z,4.80
2022-09-06T23:44:01.112Z,5.50
2022-09-06T23:46:30.734Z,4.90
2022-09-06T23:49:02.404Z,5.40
2022-09-06T23:51:31.031Z,5.30
2022-09-06T23:54:00.335Z,5.40
2022-09-06T23:56:29.452Z,6.70
2022-09-06T23:58:58.221Z,5.90
